sensor_id;sensor_type;location;lat;lon;timestamp;temperature;humidity
69162;DHT22;56269;51.738;21.652;2023-04-03T00:01:50;1.41;95.15
69162;DHT22;56269;51.738;21.652;2023-04-03T00:04:16;1.41;94.16
69162;DHT22;56269;51.738;21.652;2023-04-03T00:06:43;1.39;93.97
69162;DHT22;56269;51.738;21.652;2023-04-03T00:09:09;1.39;93.86
69162;DHT22;56269;51.738;21.652;2023-04-03T00:11:36;1.38;93.61
69162;DHT22;56269;51.738;21.652;2023-04-03T00:14:02;1.36;94.53
69162;DHT22;56269;51.738;21.652;2023-04-03T00:16:29;1.34;93.97
69162;DHT22;56269;51.738;21.652;2023-04-03T00:18:56;1.30;95.02
69162;DHT22;56269;51.738;21.652;2023-04-03T00:21:23;1.30;94.87
69162;DHT22;56269;51.738;21.652;2023-04-03T00:23:49;1.38;92.96
69162;DHT22;56269;51.738;21.652;2023-04-03T00:26:16;1.35;92.59
69162;DHT22;56269;51.738;21.652;2023-04-03T00:28:42;1.36;91.21
69162;DHT22;56269;51.738;21.652;2023-04-03T00:31:09;1.34;92.63
69162;DHT22;56269;51.738;21.652;2023-04-03T00:33:35;1.28;91.52
69162;DHT22;56269;51.738;21.652;2023-04-03T00:36:07;1.36;91.07
69162;DHT22;56269;51.738;21.652;2023-04-03T00:38:33;1.28;91.09
69162;DHT22;56269;51.738;21.652;2023-04-03T00:41:00;1.27;89.82
69162;DHT22;56269;51.738;21.652;2023-04-03T00:43:26;1.30;90.23
69162;DHT22;56269;51.738;21.652;2023-04-03T00:45:56;1.24;90.90
69162;DHT22;56269;51.738;21.652;2023-04-03T00:48:28;1.25;89.79
69162;DHT22;56269;51.738;21.652;2023-04-03T00:50:55;1.25;90.37
69162;DHT22;56269;51.738;21.652;2023-04-03T00:53:27;1.25;88.69
69162;DHT22;56269;51.738;21.652;2023-04-03T00:55:55;1.28;87.88
69162;DHT22;56269;51.738;21.652;2023-04-03T00:58:30;1.27;90.48
69162;DHT22;56269;51.738;21.652;2023-04-03T01:01:04;1.24;88.83
69162;DHT22;56269;51.738;21.652;2023-04-03T01:03:31;1.21;88.74
69162;DHT22;56269;51.738;21.652;2023-04-03T01:05:58;1.20;87.39
69162;DHT22;56269;51.738;21.652;2023-04-03T01:08:26;1.27;86.25
69162;DHT22;56269;51.738;21.652;2023-04-03T01:10:52;1.28;88.24
69162;DHT22;56269;51.738;21.652;2023-04-03T01:13:23;1.18;87.05
69162;DHT22;56269;51.738;21.652;2023-04-03T01:15:50;1.14;88.66
69162;DHT22;56269;51.738;21.652;2023-04-03T01:18:17;1.17;87.15
69162;DHT22;56269;51.738;21.652;2023-04-03T01:26:19;1.17;85.11
69162;DHT22;56269;51.738;21.652;2023-04-03T01:28:45;1.11;84.41
69162;DHT22;56269;51.738;21.652;2023-04-03T01:34:02;1.05;83.94
69162;DHT22;56269;51.738;21.652;2023-04-03T01:36:30;0.98;84.19
69162;DHT22;56269;51.738;21.652;2023-04-03T01:38:57;1.00;83.24
69162;DHT22;56269;51.738;21.652;2023-04-03T01:41:25;0.95;83.91
69162;DHT22;56269;51.738;21.652;2023-04-03T01:43:52;0.94;84.79
69162;DHT22;56269;51.738;21.652;2023-04-03T01:46:18;0.91;83.79
69162;DHT22;56269;51.738;21.652;2023-04-03T01:48:46;0.88;83.19
69162;DHT22;56269;51.738;21.652;2023-04-03T01:51:12;0.87;83.69
69162;DHT22;56269;51.738;21.652;2023-04-03T01:53:39;0.80;82.83
69162;DHT22;56269;51.738;21.652;2023-04-03T01:56:05;0.76;83.34
69162;DHT22;56269;51.738;21.652;2023-04-03T01:58:31;0.77;82.49
69162;DHT22;56269;51.738;21.652;2023-04-03T02:00:58;0.74;82.97
69162;DHT22;56269;51.738;21.652;2023-04-03T02:03:24;0.73;82.35
69162;DHT22;56269;51.738;21.652;2023-04-03T02:05:51;0.72;81.68
69162;DHT22;56269;51.738;21.652;2023-04-03T02:08:17;0.69;82.90
69162;DHT22;56269;51.738;21.652;2023-04-03T02:10:47;0.70;81.06
69162;DHT22;56269;51.738;21.652;2023-04-03T02:13:14;0.63;81.39
69162;DHT22;56269;51.738;21.652;2023-04-03T02:15:42;0.63;81.22
69162;DHT22;56269;51.738;21.652;2023-04-03T02:18:09;0.60;81.54
69162;DHT22;56269;51.738;21.652;2023-04-03T02:20:35;0.59;80.99
69162;DHT22;56269;51.738;21.652;2023-04-03T02:23:02;0.57;81.23
69162;DHT22;56269;51.738;21.652;2023-04-03T02:25:30;0.54;81.34
69162;DHT22;56269;51.738;21.652;2023-04-03T02:27:57;0.54;81.31
69162;DHT22;56269;51.738;21.652;2023-04-03T02:30:23;0.53;80.75
69162;DHT22;56269;51.738;21.652;2023-04-03T02:32:50;0.48;81.95
69162;DHT22;56269;51.738;21.652;2023-04-03T02:35:16;0.45;81.59
69162;DHT22;56269;51.738;21.652;2023-04-03T02:37:43;0.45;81.62
69162;DHT22;56269;51.738;21.652;2023-04-03T02:40:10;0.43;81.49
69162;DHT22;56269;51.738;21.652;2023-04-03T02:42:38;0.41;81.27
69162;DHT22;56269;51.738;21.652;2023-04-03T02:45:05;0.45;80.06
69162;DHT22;56269;51.738;21.652;2023-04-03T02:47:31;0.41;80.52
69162;DHT22;56269;51.738;21.652;2023-04-03T02:49:58;0.35;80.42
69162;DHT22;56269;51.738;21.652;2023-04-03T02:52:24;0.35;80.36
69162;DHT22;56269;51.738;21.652;2023-04-03T02:54:51;0.32;80.42
69162;DHT22;56269;51.738;21.652;2023-04-03T02:57:17;0.29;80.16
69162;DHT22;56269;51.738;21.652;2023-04-03T02:59:44;0.26;81.01
69162;DHT22;56269;51.738;21.652;2023-04-03T03:02:10;0.23;80.69
69162;DHT22;56269;51.738;21.652;2023-04-03T03:04:37;0.21;81.01
69162;DHT22;56269;51.738;21.652;2023-04-03T03:07:03;0.25;80.58
69162;DHT22;56269;51.738;21.652;2023-04-03T03:09:33;0.22;79.90
69162;DHT22;56269;51.738;21.652;2023-04-03T03:12:00;0.19;79.44
69162;DHT22;56269;51.738;21.652;2023-04-03T03:14:26;0.15;80.41
69162;DHT22;56269;51.738;21.652;2023-04-03T03:16:52;0.12;80.13
69162;DHT22;56269;51.738;21.652;2023-04-03T03:19:21;0.08;81.46
69162;DHT22;56269;51.738;21.652;2023-04-03T03:21:47;0.09;79.37
69162;DHT22;56269;51.738;21.652;2023-04-03T03:24:14;0.06;79.61
69162;DHT22;56269;51.738;21.652;2023-04-03T03:26:42;-0.03;81.13
69162;DHT22;56269;51.738;21.652;2023-04-03T03:29:09;-0.05;80.85
69162;DHT22;56269;51.738;21.652;2023-04-03T03:31:35;-0.09;80.34
69162;DHT22;56269;51.738;21.652;2023-04-03T03:34:02;-0.13;80.56
69162;DHT22;56269;51.738;21.652;2023-04-03T03:36:28;-0.13;80.23
69162;DHT22;56269;51.738;21.652;2023-04-03T03:38:54;-0.13;80.32
69162;DHT22;56269;51.738;21.652;2023-04-03T03:41:21;-0.20;80.37
69162;DHT22;56269;51.738;21.652;2023-04-03T03:43:47;-0.25;81.10
69162;DHT22;56269;51.738;21.652;2023-04-03T03:46:13;-0.28;80.76
69162;DHT22;56269;51.738;21.652;2023-04-03T03:48:40;-0.29;80.16
69162;DHT22;56269;51.738;21.652;2023-04-03T03:51:06;-0.25;80.77
69162;DHT22;56269;51.738;21.652;2023-04-03T03:53:33;-0.29;80.45
69162;DHT22;56269;51.738;21.652;2023-04-03T03:55:59;-0.33;81.31
69162;DHT22;56269;51.738;21.652;2023-04-03T03:58:26;-0.37;81.16
69162;DHT22;56269;51.738;21.652;2023-04-03T04:00:53;-0.43;81.59
69162;DHT22;56269;51.738;21.652;2023-04-03T04:03:19;-0.44;82.15
69162;DHT22;56269;51.738;21.652;2023-04-03T04:05:46;-0.46;81.47
69162;DHT22;56269;51.738;21.652;2023-04-03T04:08:13;-0.44;80.76
69162;DHT22;56269;51.738;21.652;2023-04-03T04:10:40;-0.46;81.12
69162;DHT22;56269;51.738;21.652;2023-04-03T04:13:07;-0.46;81.31
69162;DHT22;56269;51.738;21.652;2023-04-03T04:15:34;-0.49;80.59
69162;DHT22;56269;51.738;21.652;2023-04-03T04:18:00;-0.50;81.65
69162;DHT22;56269;51.738;21.652;2023-04-03T04:20:26;-0.48;80.85
69162;DHT22;56269;51.738;21.652;2023-04-03T04:22:53;-0.50;81.34
69162;DHT22;56269;51.738;21.652;2023-04-03T04:25:19;-0.54;81.79
69162;DHT22;56269;51.738;21.652;2023-04-03T04:27:45;-0.57;82.06
69162;DHT22;56269;51.738;21.652;2023-04-03T04:30:12;-0.57;80.86
69162;DHT22;56269;51.738;21.652;2023-04-03T04:32:39;-0.57;80.98
69162;DHT22;56269;51.738;21.652;2023-04-03T04:35:05;-0.60;81.44
69162;DHT22;56269;51.738;21.652;2023-04-03T04:37:32;-0.57;80.31
69162;DHT22;56269;51.738;21.652;2023-04-03T04:39:58;-0.63;81.79
69162;DHT22;56269;51.738;21.652;2023-04-03T04:42:27;-0.63;81.95
69162;DHT22;56269;51.738;21.652;2023-04-03T04:44:53;-0.61;81.00
69162;DHT22;56269;51.738;21.652;2023-04-03T04:47:19;-0.61;81.06
69162;DHT22;56269;51.738;21.652;2023-04-03T04:49:46;-0.66;80.90
69162;DHT22;56269;51.738;21.652;2023-04-03T04:52:13;-0.63;81.17
69162;DHT22;56269;51.738;21.652;2023-04-03T04:54:40;-0.64;80.61
69162;DHT22;56269;51.738;21.652;2023-04-03T04:57:07;-0.66;81.90
69162;DHT22;56269;51.738;21.652;2023-04-03T04:59:34;-0.63;81.55
69162;DHT22;56269;51.738;21.652;2023-04-03T05:02:00;-0.66;81.36
69162;DHT22;56269;51.738;21.652;2023-04-03T05:04:27;-0.66;81.23
69162;DHT22;56269;51.738;21.652;2023-04-03T05:06:53;-0.67;80.94
69162;DHT22;56269;51.738;21.652;2023-04-03T05:09:20;-0.63;81.33
69162;DHT22;56269;51.738;21.652;2023-04-03T05:11:47;-0.70;80.98
69162;DHT22;56269;51.738;21.652;2023-04-03T05:14:13;-0.67;80.48
69162;DHT22;56269;51.738;21.652;2023-04-03T05:16:39;-0.64;81.09
69162;DHT22;56269;51.738;21.652;2023-04-03T05:19:06;-0.70;81.33
69162;DHT22;56269;51.738;21.652;2023-04-03T05:21:32;-0.71;81.14
69162;DHT22;56269;51.738;21.652;2023-04-03T05:24:00;-0.74;81.30
69162;DHT22;56269;51.738;21.652;2023-04-03T05:26:31;-0.70;81.32
69162;DHT22;56269;51.738;21.652;2023-04-03T05:28:58;-0.70;81.52
69162;DHT22;56269;51.738;21.652;2023-04-03T05:31:24;-0.69;81.38
69162;DHT22;56269;51.738;21.652;2023-04-03T05:33:51;-0.67;81.81
69162;DHT22;56269;51.738;21.652;2023-04-03T05:36:18;-0.60;81.69
69162;DHT22;56269;51.738;21.652;2023-04-03T05:38:45;-0.39;81.01
69162;DHT22;56269;51.738;21.652;2023-04-03T05:41:12;-0.36;79.82
69162;DHT22;56269;51.738;21.652;2023-04-03T05:43:38;-0.10;80.54
69162;DHT22;56269;51.738;21.652;2023-04-03T05:46:15;-0.19;79.69
69162;DHT22;56269;51.738;21.652;2023-04-03T05:48:42;-0.18;79.43
69162;DHT22;56269;51.738;21.652;2023-04-03T05:51:17;-0.16;79.40
69162;DHT22;56269;51.738;21.652;2023-04-03T05:53:44;-0.13;79.55
69162;DHT22;56269;51.738;21.652;2023-04-03T05:56:13;-0.03;79.73
69162;DHT22;56269;51.738;21.652;2023-04-03T05:58:39;-0.16;80.06
69162;DHT22;56269;51.738;21.652;2023-04-03T06:01:06;-0.08;79.81
69162;DHT22;56269;51.738;21.652;2023-04-03T06:03:33;0.05;79.60
69162;DHT22;56269;51.738;21.652;2023-04-03T06:06:02;0.18;78.60
69162;DHT22;56269;51.738;21.652;2023-04-03T06:08:31;0.48;78.78
69162;DHT22;56269;51.738;21.652;2023-04-03T06:10:58;0.52;77.69
69162;DHT22;56269;51.738;21.652;2023-04-03T06:13:24;0.91;77.00
69162;DHT22;56269;51.738;21.652;2023-04-03T06:15:50;1.04;76.53
69162;DHT22;56269;51.738;21.652;2023-04-03T06:18:16;1.17;76.32
69162;DHT22;56269;51.738;21.652;2023-04-03T06:20:43;1.21;77.87
69162;DHT22;56269;51.738;21.652;2023-04-03T06:23:09;1.34;76.74
69162;DHT22;56269;51.738;21.652;2023-04-03T06:25:36;1.15;75.52
69162;DHT22;56269;51.738;21.652;2023-04-03T06:28:02;0.76;75.92
69162;DHT22;56269;51.738;21.652;2023-04-03T06:34:12;0.88;77.12
69162;DHT22;56269;51.738;21.652;2023-04-03T06:36:39;0.83;75.59
69162;DHT22;56269;51.738;21.652;2023-04-03T06:51:23;1.35;74.92
69162;DHT22;56269;51.738;21.652;2023-04-03T06:53:52;0.66;76.26
69162;DHT22;56269;51.738;21.652;2023-04-03T06:56:19;0.43;77.78
69162;DHT22;56269;51.738;21.652;2023-04-03T06:58:49;0.38;77.92
69162;DHT22;56269;51.738;21.652;2023-04-03T07:01:21;0.30;77.98
69162;DHT22;56269;51.738;21.652;2023-04-03T07:03:59;0.30;78.71
69162;DHT22;56269;51.738;21.652;2023-04-03T07:06:26;0.29;78.23
69162;DHT22;56269;51.738;21.652;2023-04-03T07:08:57;0.22;78.20
69162;DHT22;56269;51.738;21.652;2023-04-03T07:11:23;0.25;77.90
69162;DHT22;56269;51.738;21.652;2023-04-03T07:13:55;0.56;77.64
69162;DHT22;56269;51.738;21.652;2023-04-03T07:16:38;0.83;77.60
69162;DHT22;56269;51.738;21.652;2023-04-03T07:19:13;0.97;76.28
69162;DHT22;56269;51.738;21.652;2023-04-03T07:21:40;1.00;74.77
69162;DHT22;56269;51.738;21.652;2023-04-03T07:24:08;1.46;76.98
69162;DHT22;56269;51.738;21.652;2023-04-03T07:26:37;1.46;75.52
69162;DHT22;56269;51.738;21.652;2023-04-03T07:29:04;2.20;73.98
69162;DHT22;56269;51.738;21.652;2023-04-03T07:31:30;2.40;72.29
69162;DHT22;56269;51.738;21.652;2023-04-03T07:33:56;1.97;73.53
69162;DHT22;56269;51.738;21.652;2023-04-03T07:36:26;2.33;72.08
69162;DHT22;56269;51.738;21.652;2023-04-03T07:38:52;2.17;72.88
69162;DHT22;56269;51.738;21.652;2023-04-03T07:41:21;2.21;73.23
69162;DHT22;56269;51.738;21.652;2023-04-03T07:43:49;1.85;73.05
69162;DHT22;56269;51.738;21.652;2023-04-03T07:46:42;1.42;72.54
69162;DHT22;56269;51.738;21.652;2023-04-03T07:49:09;1.63;73.22
69162;DHT22;56269;51.738;21.652;2023-04-03T07:51:36;2.21;73.69
69162;DHT22;56269;51.738;21.652;2023-04-03T07:54:03;2.14;72.46
69162;DHT22;56269;51.738;21.652;2023-04-03T07:56:31;2.18;72.03
69162;DHT22;56269;51.738;21.652;2023-04-03T07:58:58;2.41;71.83
69162;DHT22;56269;51.738;21.652;2023-04-03T08:01:30;2.31;70.34
69162;DHT22;56269;51.738;21.652;2023-04-03T08:03:58;2.30;69.45
69162;DHT22;56269;51.738;21.652;2023-04-03T08:06:25;2.61;68.24
69162;DHT22;56269;51.738;21.652;2023-04-03T08:09:08;2.44;68.49
69162;DHT22;56269;51.738;21.652;2023-04-03T08:12:02;3.41;68.74
69162;DHT22;56269;51.738;21.652;2023-04-03T08:14:31;3.23;66.73
69162;DHT22;56269;51.738;21.652;2023-04-03T08:17:00;3.24;66.08
69162;DHT22;56269;51.738;21.652;2023-04-03T08:19:27;2.84;65.41
69162;DHT22;56269;51.738;21.652;2023-04-03T08:21:54;2.96;64.98
69162;DHT22;56269;51.738;21.652;2023-04-03T08:24:21;3.47;65.00
69162;DHT22;56269;51.738;21.652;2023-04-03T08:26:47;3.74;62.39
69162;DHT22;56269;51.738;21.652;2023-04-03T08:38:25;3.87;62.24
69162;DHT22;56269;51.738;21.652;2023-04-03T08:41:40;3.13;63.42
69162;DHT22;56269;51.738;21.652;2023-04-03T08:47:38;3.09;62.00
69162;DHT22;56269;51.738;21.652;2023-04-03T08:54:27;2.84;61.72
69162;DHT22;56269;51.738;21.652;2023-04-03T09:09:42;2.88;60.97
69162;DHT22;56269;51.738;21.652;2023-04-03T09:21:56;3.18;61.20
69162;DHT22;56269;51.738;21.652;2023-04-03T09:38:22;5.10;54.88
69162;DHT22;56269;51.738;21.652;2023-04-03T09:41:15;5.34;56.40
69162;DHT22;56269;51.738;21.652;2023-04-03T09:47:32;4.96;56.66
69162;DHT22;56269;51.738;21.652;2023-04-03T09:53:45;4.52;57.11
69162;DHT22;56269;51.738;21.652;2023-04-03T09:58:49;5.13;56.85
69162;DHT22;56269;51.738;21.652;2023-04-03T10:01:35;4.81;55.94
69162;DHT22;56269;51.738;21.652;2023-04-03T10:04:08;4.84;55.72
69162;DHT22;56269;51.738;21.652;2023-04-03T10:06:38;4.21;57.08
69162;DHT22;56269;51.738;21.652;2023-04-03T10:09:25;4.15;56.01
69162;DHT22;56269;51.738;21.652;2023-04-03T10:12:10;3.78;58.73
69162;DHT22;56269;51.738;21.652;2023-04-03T10:15:00;4.16;58.84
69162;DHT22;56269;51.738;21.652;2023-04-03T10:18:13;4.12;56.41
69162;DHT22;56269;51.738;21.652;2023-04-03T10:20:47;4.74;60.36
69162;DHT22;56269;51.738;21.652;2023-04-03T10:23:26;4.55;55.82
69162;DHT22;56269;51.738;21.652;2023-04-03T10:31:49;4.23;57.49
69162;DHT22;56269;51.738;21.652;2023-04-03T10:34:37;4.81;57.70
69162;DHT22;56269;51.738;21.652;2023-04-03T10:37:10;5.04;56.82
69162;DHT22;56269;51.738;21.652;2023-04-03T10:40:01;4.76;55.12
69162;DHT22;56269;51.738;21.652;2023-04-03T10:43:13;3.98;56.43
69162;DHT22;56269;51.738;21.652;2023-04-03T10:46:05;4.74;55.87
69162;DHT22;56269;51.738;21.652;2023-04-03T10:48:43;5.24;58.13
69162;DHT22;56269;51.738;21.652;2023-04-03T10:51:41;3.81;55.78
69162;DHT22;56269;51.738;21.652;2023-04-03T10:54:25;3.18;58.44
69162;DHT22;56269;51.738;21.652;2023-04-03T10:57:03;3.88;59.93
69162;DHT22;56269;51.738;21.652;2023-04-03T10:59:56;4.49;57.29
69162;DHT22;56269;51.738;21.652;2023-04-03T11:02:37;4.46;56.69
69162;DHT22;56269;51.738;21.652;2023-04-03T11:05:31;5.66;58.16
69162;DHT22;56269;51.738;21.652;2023-04-03T11:08:04;5.59;53.75
69162;DHT22;56269;51.738;21.652;2023-04-03T11:10:44;5.07;54.17
69162;DHT22;56269;51.738;21.652;2023-04-03T11:13:26;5.03;59.43
69162;DHT22;56269;51.738;21.652;2023-04-03T11:15:56;4.48;58.00
69162;DHT22;56269;51.738;21.652;2023-04-03T11:18:47;4.19;59.20
69162;DHT22;56269;51.738;21.652;2023-04-03T11:23:44;3.75;60.33
69162;DHT22;56269;51.738;21.652;2023-04-03T11:26:18;3.87;58.41
69162;DHT22;56269;51.738;21.652;2023-04-03T11:28:56;4.15;57.63
69162;DHT22;56269;51.738;21.652;2023-04-03T11:34:06;4.29;55.72
69162;DHT22;56269;51.738;21.652;2023-04-03T11:36:44;5.08;57.54
69162;DHT22;56269;51.738;21.652;2023-04-03T12:40:36;3.78;56.53
69162;DHT22;56269;51.738;21.652;2023-04-03T13:18:41;4.23;57.04
69162;DHT22;56269;51.738;21.652;2023-04-03T13:21:48;4.09;55.61
69162;DHT22;56269;51.738;21.652;2023-04-03T13:24:26;4.16;54.78
69162;DHT22;56269;51.738;21.652;2023-04-03T13:27:05;4.50;54.56
69162;DHT22;56269;51.738;21.652;2023-04-03T13:34:48;4.09;55.01
69162;DHT22;56269;51.738;21.652;2023-04-03T13:42:57;4.19;54.02
69162;DHT22;56269;51.738;21.652;2023-04-03T13:48:49;3.88;56.41
69162;DHT22;56269;51.738;21.652;2023-04-03T13:51:29;3.85;55.89
69162;DHT22;56269;51.738;21.652;2023-04-03T13:54:01;3.85;56.23
69162;DHT22;56269;51.738;21.652;2023-04-03T13:56:39;3.91;55.97
69162;DHT22;56269;51.738;21.652;2023-04-03T14:05:41;3.69;57.27
69162;DHT22;56269;51.738;21.652;2023-04-03T14:09:00;3.64;57.36
69162;DHT22;56269;51.738;21.652;2023-04-03T14:11:49;3.70;57.63
69162;DHT22;56269;51.738;21.652;2023-04-03T14:15:06;3.85;57.96
69162;DHT22;56269;51.738;21.652;2023-04-03T14:18:12;3.60;55.89
69162;DHT22;56269;51.738;21.652;2023-04-03T14:42:59;3.64;56.37
69162;DHT22;56269;51.738;21.652;2023-04-03T14:46:22;3.67;58.02
69162;DHT22;56269;51.738;21.652;2023-04-03T15:23:16;4.15;59.12
69162;DHT22;56269;51.738;21.652;2023-04-03T15:25:44;4.09;57.64
69162;DHT22;56269;51.738;21.652;2023-04-03T15:28:39;4.12;57.90
69162;DHT22;56269;51.738;21.652;2023-04-03T15:31:07;4.11;57.16
69162;DHT22;56269;51.738;21.652;2023-04-03T15:33:34;4.01;57.26
69162;DHT22;56269;51.738;21.652;2023-04-03T15:36:01;4.06;56.99
69162;DHT22;56269;51.738;21.652;2023-04-03T15:38:28;3.95;58.32
69162;DHT22;56269;51.738;21.652;2023-04-03T15:40:55;3.90;57.29
69162;DHT22;56269;51.738;21.652;2023-04-03T15:43:21;3.81;57.74
69162;DHT22;56269;51.738;21.652;2023-04-03T15:45:49;3.90;58.27
69162;DHT22;56269;51.738;21.652;2023-04-03T15:48:15;3.80;58.27
69162;DHT22;56269;51.738;21.652;2023-04-03T15:50:45;3.78;57.43
69162;DHT22;56269;51.738;21.652;2023-04-03T15:53:11;3.85;58.24
69162;DHT22;56269;51.738;21.652;2023-04-03T15:55:38;3.81;57.80
69162;DHT22;56269;51.738;21.652;2023-04-03T15:58:05;3.74;57.62
69162;DHT22;56269;51.738;21.652;2023-04-03T16:00:31;3.69;57.71
69162;DHT22;56269;51.738;21.652;2023-04-03T16:03:02;3.66;59.23
69162;DHT22;56269;51.738;21.652;2023-04-03T16:13:23;3.50;60.34
69162;DHT22;56269;51.738;21.652;2023-04-03T16:15:49;3.41;57.61
69162;DHT22;56269;51.738;21.652;2023-04-03T16:18:16;3.34;58.58
69162;DHT22;56269;51.738;21.652;2023-04-03T16:20:44;3.33;58.97
69162;DHT22;56269;51.738;21.652;2023-04-03T16:23:11;3.27;58.81
69162;DHT22;56269;51.738;21.652;2023-04-03T16:25:37;3.26;58.95
69162;DHT22;56269;51.738;21.652;2023-04-03T16:28:04;3.20;59.33
69162;DHT22;56269;51.738;21.652;2023-04-03T16:30:30;3.18;60.32
69162;DHT22;56269;51.738;21.652;2023-04-03T16:32:57;3.16;61.31
69162;DHT22;56269;51.738;21.652;2023-04-03T16:35:23;3.16;60.75
69162;DHT22;56269;51.738;21.652;2023-04-03T16:37:50;3.23;59.86
69162;DHT22;56269;51.738;21.652;2023-04-03T16:40:16;3.16;62.07
69162;DHT22;56269;51.738;21.652;2023-04-03T16:42:43;3.08;60.69
69162;DHT22;56269;51.738;21.652;2023-04-03T16:45:09;3.05;61.55
69162;DHT22;56269;51.738;21.652;2023-04-03T16:47:36;3.08;61.02
69162;DHT22;56269;51.738;21.652;2023-04-03T16:50:03;3.03;60.68
69162;DHT22;56269;51.738;21.652;2023-04-03T16:52:29;2.95;63.05
69162;DHT22;56269;51.738;21.652;2023-04-03T16:54:56;2.87;63.55
69162;DHT22;56269;51.738;21.652;2023-04-03T16:57:25;2.85;61.45
69162;DHT22;56269;51.738;21.652;2023-04-03T16:59:51;2.84;61.81
69162;DHT22;56269;51.738;21.652;2023-04-03T17:02:19;2.91;61.24
69162;DHT22;56269;51.738;21.652;2023-04-03T17:04:45;2.85;60.96
69162;DHT22;56269;51.738;21.652;2023-04-03T17:07:13;2.75;61.90
69162;DHT22;56269;51.738;21.652;2023-04-03T17:09:39;2.71;62.56
69162;DHT22;56269;51.738;21.652;2023-04-03T17:12:05;2.69;63.33
69162;DHT22;56269;51.738;21.652;2023-04-03T17:14:31;2.68;62.74
69162;DHT22;56269;51.738;21.652;2023-04-03T17:16:58;2.59;64.40
69162;DHT22;56269;51.738;21.652;2023-04-03T17:19:25;2.58;63.23
69162;DHT22;56269;51.738;21.652;2023-04-03T17:21:53;2.62;63.04
69162;DHT22;56269;51.738;21.652;2023-04-03T17:24:19;2.59;63.15
69162;DHT22;56269;51.738;21.652;2023-04-03T17:26:46;2.52;63.94
69162;DHT22;56269;51.738;21.652;2023-04-03T17:29:12;2.51;65.69
69162;DHT22;56269;51.738;21.652;2023-04-03T17:31:39;2.48;64.37
69162;DHT22;56269;51.738;21.652;2023-04-03T17:34:07;2.41;65.88
69162;DHT22;56269;51.738;21.652;2023-04-03T17:36:38;2.45;64.19
69162;DHT22;56269;51.738;21.652;2023-04-03T17:39:05;2.42;64.21
69162;DHT22;56269;51.738;21.652;2023-04-03T17:41:31;2.45;65.30
69162;DHT22;56269;51.738;21.652;2023-04-03T17:43:57;2.49;64.30
69162;DHT22;56269;51.738;21.652;2023-04-03T17:46:26;2.55;64.27
69162;DHT22;56269;51.738;21.652;2023-04-03T17:48:53;2.48;63.83
69162;DHT22;56269;51.738;21.652;2023-04-03T17:51:22;2.55;64.40
69162;DHT22;56269;51.738;21.652;2023-04-03T17:53:50;2.48;63.46
69162;DHT22;56269;51.738;21.652;2023-04-03T17:56:20;2.47;63.80
69162;DHT22;56269;51.738;21.652;2023-04-03T17:58:50;2.42;64.96
69162;DHT22;56269;51.738;21.652;2023-04-03T18:01:19;2.38;64.64
69162;DHT22;56269;51.738;21.652;2023-04-03T18:03:47;2.49;63.25
69162;DHT22;56269;51.738;21.652;2023-04-03T18:06:19;2.45;64.16
69162;DHT22;56269;51.738;21.652;2023-04-03T18:08:53;2.55;63.41
69162;DHT22;56269;51.738;21.652;2023-04-03T18:11:26;2.59;64.51
69162;DHT22;56269;51.738;21.652;2023-04-03T18:13:54;2.55;63.78
69162;DHT22;56269;51.738;21.652;2023-04-03T18:16:23;2.55;63.70
69162;DHT22;56269;51.738;21.652;2023-04-03T18:18:50;2.62;63.07
69162;DHT22;56269;51.738;21.652;2023-04-03T18:21:17;2.61;62.08
69162;DHT22;56269;51.738;21.652;2023-04-03T18:23:47;2.61;62.74
69162;DHT22;56269;51.738;21.652;2023-04-03T18:26:17;2.57;62.40
69162;DHT22;56269;51.738;21.652;2023-04-03T18:28:55;2.54;63.44
69162;DHT22;56269;51.738;21.652;2023-04-03T18:31:26;2.47;63.77
69162;DHT22;56269;51.738;21.652;2023-04-03T18:33:54;2.40;64.52
69162;DHT22;56269;51.738;21.652;2023-04-03T18:36:26;2.31;65.55
69162;DHT22;56269;51.738;21.652;2023-04-03T18:38:54;2.31;64.85
69162;DHT22;56269;51.738;21.652;2023-04-03T18:41:25;2.24;66.24
69162;DHT22;56269;51.738;21.652;2023-04-03T18:43:55;2.27;65.47
69162;DHT22;56269;51.738;21.652;2023-04-03T18:46:23;2.30;65.39
69162;DHT22;56269;51.738;21.652;2023-04-03T18:48:51;2.27;64.48
69162;DHT22;56269;51.738;21.652;2023-04-03T18:51:20;2.27;65.10
69162;DHT22;56269;51.738;21.652;2023-04-03T18:53:48;2.23;65.64
69162;DHT22;56269;51.738;21.652;2023-04-03T18:56:15;2.20;66.08
69162;DHT22;56269;51.738;21.652;2023-04-03T18:58:42;2.18;65.49
69162;DHT22;56269;51.738;21.652;2023-04-03T19:01:10;2.28;64.43
69162;DHT22;56269;51.738;21.652;2023-04-03T19:03:37;2.20;65.55
69162;DHT22;56269;51.738;21.652;2023-04-03T19:06:05;2.18;64.92
69162;DHT22;56269;51.738;21.652;2023-04-03T19:08:33;2.17;64.50
69162;DHT22;56269;51.738;21.652;2023-04-03T19:11:00;2.10;64.73
69162;DHT22;56269;51.738;21.652;2023-04-03T19:13:27;2.10;64.55
69162;DHT22;56269;51.738;21.652;2023-04-03T19:15:56;2.09;65.42
69162;DHT22;56269;51.738;21.652;2023-04-03T19:18:25;2.07;65.10
69162;DHT22;56269;51.738;21.652;2023-04-03T19:20:54;2.02;64.91
69162;DHT22;56269;51.738;21.652;2023-04-03T19:23:25;2.05;64.92
69162;DHT22;56269;51.738;21.652;2023-04-03T19:26:01;2.02;64.58
69162;DHT22;56269;51.738;21.652;2023-04-03T19:28:29;2.05;64.06
69162;DHT22;56269;51.738;21.652;2023-04-03T19:30:57;2.02;64.95
69162;DHT22;56269;51.738;21.652;2023-04-03T19:33:24;2.00;64.95
69162;DHT22;56269;51.738;21.652;2023-04-03T19:35:52;2.02;63.73
69162;DHT22;56269;51.738;21.652;2023-04-03T19:38:19;2.02;64.69
69162;DHT22;56269;51.738;21.652;2023-04-03T19:40:49;2.00;64.16
69162;DHT22;56269;51.738;21.652;2023-04-03T19:43:16;1.90;64.51
69162;DHT22;56269;51.738;21.652;2023-04-03T19:45:43;1.87;65.84
69162;DHT22;56269;51.738;21.652;2023-04-03T19:48:11;1.80;65.76
69162;DHT22;56269;51.738;21.652;2023-04-03T19:50:39;1.75;65.85
69162;DHT22;56269;51.738;21.652;2023-04-03T19:53:07;1.72;67.51
69162;DHT22;56269;51.738;21.652;2023-04-03T19:55:37;1.63;66.60
69162;DHT22;56269;51.738;21.652;2023-04-03T19:58:05;1.52;67.79
69162;DHT22;56269;51.738;21.652;2023-04-03T20:00:34;1.52;68.09
69162;DHT22;56269;51.738;21.652;2023-04-03T20:03:02;1.51;67.34
69162;DHT22;56269;51.738;21.652;2023-04-03T20:05:30;1.44;69.28
69162;DHT22;56269;51.738;21.652;2023-04-03T20:08:05;1.36;69.42
69162;DHT22;56269;51.738;21.652;2023-04-03T20:10:38;1.35;68.13
69162;DHT22;56269;51.738;21.652;2023-04-03T20:13:11;1.34;69.66
69162;DHT22;56269;51.738;21.652;2023-04-03T20:15:40;1.36;68.79
69162;DHT22;56269;51.738;21.652;2023-04-03T20:18:10;1.35;68.90
69162;DHT22;56269;51.738;21.652;2023-04-03T20:20:54;1.32;69.50
69162;DHT22;56269;51.738;21.652;2023-04-03T20:23:21;1.31;68.89
69162;DHT22;56269;51.738;21.652;2023-04-03T20:25:53;1.27;69.32
69162;DHT22;56269;51.738;21.652;2023-04-03T20:28:21;1.23;69.47